Time;durP1;ratioP1;P1;durP2;ratioP2;P2;SDS_P1;SDS_P2;PMS_P1;PMS_P2;Temp;Humidity;BMP_temperature;BMP_pressure;BME280_temperature;BME280_humidity;BME280_pressure;Samples;Min_cycle;Max_cycle;Signal;HPM_P1;HPM_P2
2024/02/05 00:00:33;;;;;;;;;2.00;2.00;;;;;-144.24;100.00;111611.16;5093412;27;45476;-71
2024/02/05 00:02:59;;;;;;;;;9.67;2.00;;;;;-144.24;100.00;111839.19;5091824;27;52821;-72
2024/02/05 00:05:25;;;;;;;;;2.67;2.00;;;;;-144.24;100.00;111859.56;5111055;22;45758;-72
2024/02/05 00:07:51;;;;;;;;;3.00;1.00;;;;;-144.24;100.00;112004.13;5080378;27;46184;-71
2024/02/05 00:12:44;;;;;;;;;3.67;2.00;;;;;-144.24;100.00;112095.75;5085318;22;67901;-73
2024/02/05 00:15:09;;;;;;;;;6.00;2.33;;;;;-144.24;100.00;112274.94;5094118;22;45574;-73
2024/02/05 00:17:35;;;;;;;;;3.00;2.00;;;;;-144.24;100.00;112226.06;5068815;22;46676;-73
2024/02/05 00:20:01;;;;;;;;;4.33;2.00;;;;;-144.24;100.00;112323.81;5083627;22;45754;-73
2024/02/05 00:22:26;;;;;;;;;5.67;2.33;;;;;-144.24;100.00;112376.75;5054738;22;45221;-75
2024/02/05 00:24:52;;;;;;;;;2.33;1.33;;;;;-144.24;100.00;112456.19;5054908;22;46843;-71
2024/02/05 00:27:20;;;;;;;;;3.67;3.00;;;;;-144.24;100.00;112633.34;5054768;28;72206;-72
2024/02/05 00:29:45;;;;;;;;;2.00;2.00;;;;;-144.24;100.00;112694.44;5102076;22;45407;-73
2024/02/05 00:32:11;;;;;;;;;5.00;2.00;;;;;-144.24;100.00;112887.91;5089022;22;45414;-70
2024/02/05 00:34:37;;;;;;;;;2.00;2.00;;;;;-144.24;100.00;113036.59;5065827;22;57981;-71
2024/02/05 00:42:04;;;;;;;;;3.00;2.00;;;;;-144.24;100.00;113291.19;5094123;22;45278;-71
2024/02/05 00:44:30;;;;;;;;;4.67;2.00;;;;;-144.24;100.00;113454.13;5072467;22;56073;-71
2024/02/05 00:46:55;;;;;;;;;4.00;1.67;;;;;-144.24;100.00;113529.50;5069144;22;67848;-70
2024/02/05 00:49:20;;;;;;;;;2.67;1.67;;;;;-144.24;100.00;113590.59;5085578;22;45247;-72
2024/02/05 00:51:46;;;;;;;;;5.33;2.00;;;;;-144.24;100.00;113706.72;5057966;28;63046;-74
2024/02/05 00:54:11;;;;;;;;;3.33;2.00;;;;;-144.24;100.00;113696.53;5075937;28;59084;-71
2024/02/05 00:56:36;;;;;;;;;8.00;2.33;;;;;-144.24;100.00;113800.41;5075681;28;70422;-71
2024/02/05 00:59:04;;;;;;;;;3.00;2.00;;;;;-144.24;100.00;113794.31;5076385;28;66317;-70
2024/02/05 01:01:30;;;;;;;;;2.00;2.00;;;;;-144.24;100.00;113820.78;5053452;28;45433;-73
2024/02/05 01:03:55;;;;;;;;;2.00;0.00;;;;;-144.24;100.00;113883.94;5075665;22;49030;-70
2024/02/05 01:06:20;;;;;;;;;3.00;3.00;;;;;-144.24;100.00;114008.19;5087923;27;68815;-71
2024/02/05 01:08:47;;;;;;;;;4.67;2.00;;;;;-144.24;100.00;114016.34;5089909;27;45418;-72
2024/02/05 01:11:12;;;;;;;;;2.00;1.00;;;;;-144.24;100.00;114018.38;5078806;27;45276;-71
2024/02/05 01:13:38;;;;;;;;;6.00;2.00;;;;;-144.24;100.00;114048.94;5092013;27;45495;-71
2024/02/05 01:16:04;;;;;;;;;4.33;2.33;;;;;-144.24;100.00;114069.31;5078552;27;66123;-70
2024/02/05 01:18:29;;;;;;;;;1.00;1.00;;;;;-144.24;100.00;114099.88;5081614;27;45529;-71
2024/02/05 01:20:55;;;;;;;;;8.67;2.00;;;;;-144.24;100.00;114224.13;5062205;27;45368;-71
2024/02/05 01:23:20;;;;;;;;;1.33;1.33;;;;;-144.24;100.00;114230.25;5096247;27;60274;-71
2024/02/05 01:25:46;;;;;;;;;6.00;1.00;;;;;-144.24;100.00;114250.63;5095807;27;72586;-72
2024/02/05 01:28:11;;;;;;;;;2.67;2.00;;;;;-144.24;100.00;114264.88;5060473;27;46091;-70
2024/02/05 01:30:36;;;;;;;;;1.33;0.00;;;;;-144.24;100.00;114311.75;5088283;27;65665;-72
2024/02/05 01:33:02;;;;;;;;;3.00;1.00;;;;;-144.24;100.00;114358.59;5097006;27;45452;-70
2024/02/05 01:35:27;;;;;;;;;5.33;2.67;;;;;-144.24;100.00;114411.56;5085038;27;46098;-70
2024/02/05 01:37:53;;;;;;;;;1.67;1.00;;;;;-144.24;100.00;114423.81;5095176;27;45238;-71
2024/02/05 01:40:21;;;;;;;;;1.00;1.00;;;;;-144.24;100.00;114442.13;5097705;27;45190;-71
2024/02/05 01:42:46;;;;;;;;;3.67;2.33;;;;;-144.24;100.00;114499.19;5084906;27;67440;-71
2024/02/05 01:45:12;;;;;;;;;4.00;2.00;;;;;-144.24;100.00;114442.13;5094939;27;45693;-72
2024/02/05 01:47:38;;;;;;;;;2.33;0.00;;;;;-144.24;100.00;114470.66;5066354;28;55949;-71
2024/02/05 01:50:08;;;;;;;;;2.67;1.00;;;;;-144.24;100.00;114413.63;5079041;22;45583;-70
2024/02/05 01:52:35;;;;;;;;;0.00;0.00;;;;;-144.24;100.00;114478.81;5068001;27;45291;-71
2024/02/05 01:55:00;;;;;;;;;4.67;2.67;;;;;-144.24;100.00;114482.88;5080239;27;46138;-72
2024/02/05 01:57:25;;;;;;;;;4.00;1.67;;;;;-144.24;100.00;114474.72;5064644;27;45428;-70
2024/02/05 01:59:51;;;;;;;;;5.00;1.00;;;;;-144.24;100.00;114438.06;5089696;27;66251;-73
2024/02/05 02:02:16;;;;;;;;;3.00;1.67;;;;;-144.24;100.00;114458.44;5071683;28;58700;-71
2024/02/05 02:04:42;;;;;;;;;1.00;1.00;;;;;-144.24;100.00;114513.44;5074913;27;46633;-72
2024/02/05 02:07:10;;;;;;;;;1.00;1.00;;;;;-144.24;100.00;114558.28;5092793;27;68350;-71
2024/02/05 02:09:35;;;;;;;;;3.00;2.00;;;;;-144.24;100.00;114594.94;5069536;27;45322;-73
2024/02/05 02:12:00;;;;;;;;;3.67;1.00;;;;;-144.24;100.00;114574.56;5079036;27;45469;-74
2024/02/05 02:14:26;;;;;;;;;1.33;1.33;;;;;-144.24;100.00;114588.84;5079704;27;47063;-71
2024/02/05 02:16:52;;;;;;;;;2.00;0.33;;;;;-144.24;100.00;114625.50;5085528;22;45379;-73
2024/02/05 02:19:23;;;;;;;;;3.67;1.00;;;;;-144.24;100.00;114707.00;5079544;28;45377;-73
2024/02/05 02:21:57;;;;;;;;;2.00;1.00;;;;;-144.24;100.00;114749.78;5079244;28;45584;-71
2024/02/05 02:24:22;;;;;;;;;4.00;1.00;;;;;-144.24;100.00;114780.34;5059488;28;45968;-70
2024/02/05 02:26:48;;;;;;;;;1.00;1.00;;;;;-144.24;100.00;114751.84;5078815;28;45471;-73
2024/02/05 02:29:13;;;;;;;;;2.00;2.00;;;;;-144.24;100.00;114774.25;5060966;28;68892;-70
2024/02/05 02:31:39;;;;;;;;;3.00;1.00;;;;;-144.24;100.00;114749.78;5060737;28;54505;-71
2024/02/05 02:34:12;;;;;;;;;1.00;1.00;;;;;-144.24;100.00;114768.13;5046071;28;69154;-74
2024/02/05 02:36:42;;;;;;;;;2.67;2.00;;;;;-144.24;100.00;114790.53;5060748;28;45309;-71
2024/02/05 02:39:19;;;;;;;;;2.67;1.00;;;;;-144.24;100.00;114839.44;5079337;28;45386;-71
2024/02/05 02:41:46;;;;;;;;;3.67;1.00;;;;;-144.24;100.00;114825.19;5053185;28;45331;-71
2024/02/05 02:46:41;;;;;;;;;3.33;1.00;;;;;-144.24;100.00;114839.44;5088714;27;45425;-71
2024/02/05 02:49:07;;;;;;;;;4.67;2.00;;;;;-144.24;100.00;114821.09;5098401;27;46126;-70
2024/02/05 02:51:33;;;;;;;;;3.00;1.00;;;;;-144.24;100.00;114855.75;5088158;27;55146;-70
2024/02/05 02:53:59;;;;;;;;;3.00;1.00;;;;;-144.24;100.00;114865.94;5074219;27;45780;-70
2024/02/05 02:56:28;;;;;;;;;3.67;1.00;;;;;-144.24;100.00;114865.94;5082069;27;45357;-72
2024/02/05 02:58:53;;;;;;;;;2.67;1.00;;;;;-144.24;100.00;114865.94;5099352;27;45489;-74
2024/02/05 03:01:19;;;;;;;;;1.67;1.00;;;;;-144.24;100.00;114865.94;5095759;27;46359;-71
2024/02/05 03:03:44;;;;;;;;;0.33;0.00;;;;;-144.24;100.00;114865.94;5098803;27;46396;-70
2024/02/05 03:06:10;;;;;;;;;1.67;0.33;;;;;-144.24;100.00;114865.94;5079812;27;45494;-72
2024/02/05 03:08:35;;;;;;;;;1.00;1.00;;;;;-144.24;100.00;114865.94;5096350;27;45974;-70
2024/02/05 03:11:00;;;;;;;;;2.00;0.67;;;;;-144.24;100.00;114865.94;5095720;27;45425;-71
2024/02/05 03:13:26;;;;;;;;;1.00;1.00;;;;;-144.24;100.00;114865.94;5075925;27;48414;-71
2024/02/05 03:15:51;;;;;;;;;2.00;1.00;;;;;-144.24;100.00;114865.94;5088864;27;45137;-72
2024/02/05 03:18:17;;;;;;;;;5.33;1.33;;;;;-144.24;100.00;114865.94;5071821;28;45895;-71
2024/02/05 03:20:42;;;;;;;;;2.33;0.00;;;;;-144.24;100.00;114865.94;5079672;27;45406;-70
2024/02/05 03:23:09;;;;;;;;;1.00;1.00;;;;;-144.24;100.00;114865.94;5094093;27;45817;-73
2024/02/05 03:25:35;;;;;;;;;2.33;0.67;;;;;-144.24;100.00;114865.94;5096170;27;45405;-70
2024/02/05 03:28:01;;;;;;;;;2.00;1.00;;;;;-144.24;100.00;114865.94;5072347;27;45467;-71
2024/02/05 03:30:30;;;;;;;;;2.67;1.00;;;;;-144.24;100.00;114865.94;5090689;27;45498;-73
2024/02/05 03:32:56;;;;;;;;;2.00;2.00;;;;;-144.24;100.00;114865.94;5092803;27;46127;-71
2024/02/05 03:35:23;;;;;;;;;3.00;0.00;;;;;-144.24;100.00;114865.94;5094643;27;45445;-74
2024/02/05 03:37:48;;;;;;;;;3.00;1.00;;;;;-144.24;100.00;114865.94;5068283;27;45920;-70
2024/02/05 03:40:14;;;;;;;;;1.00;1.00;;;;;-144.24;100.00;114865.94;5108120;22;65381;-70
2024/02/05 03:42:39;;;;;;;;;1.67;1.33;;;;;-144.24;100.00;114865.94;5087620;22;45885;-71
2024/02/05 03:45:05;;;;;;;;;5.33;0.67;;;;;-144.24;100.00;114865.94;5078223;28;45254;-70
2024/02/05 03:47:30;;;;;;;;;3.00;1.00;;;;;-144.24;100.00;114865.94;5063440;22;45497;-71
2024/02/05 03:49:56;;;;;;;;;3.33;1.00;;;;;-144.24;100.00;114865.94;5095848;22;60257;-70
2024/02/05 03:52:21;;;;;;;;;3.67;1.00;;;;;-144.24;100.00;114865.94;5089049;22;46528;-72
2024/02/05 03:54:46;;;;;;;;;2.33;1.00;;;;;-144.24;100.00;114865.94;5094420;22;59404;-70
2024/02/05 03:57:12;;;;;;;;;3.33;2.00;;;;;-144.24;100.00;114865.94;5067701;28;45415;-70
2024/02/05 03:59:38;;;;;;;;;4.33;2.00;;;;;-144.24;100.00;114865.94;5070116;28;45496;-71
2024/02/05 04:02:03;;;;;;;;;1.00;1.00;;;;;-144.24;100.00;114865.94;5051986;28;45466;-74
2024/02/05 04:04:29;;;;;;;;;3.00;2.00;;;;;-144.24;100.00;114865.94;5057327;28;45485;-70
2024/02/05 04:06:54;;;;;;;;;1.33;0.67;;;;;-144.24;100.00;114865.94;5058349;28;49567;-71
2024/02/05 04:09:19;;;;;;;;;4.00;1.00;;;;;-144.24;100.00;114865.94;5076193;28;48347;-70
2024/02/05 04:11:45;;;;;;;;;2.00;1.33;;;;;-144.24;100.00;114865.94;5069309;28;63644;-71
2024/02/05 04:14:10;;;;;;;;;5.00;2.00;;;;;-144.24;100.00;114865.94;5077707;28;45447;-71
2024/02/05 04:16:36;;;;;;;;;2.67;2.00;;;;;-144.24;100.00;114865.94;5073662;28;45258;-71
2024/02/05 04:19:02;;;;;;;;;4.67;0.67;;;;;-144.24;100.00;114865.94;5078186;28;45408;-71
2024/02/05 04:21:27;;;;;;;;;4.00;2.00;;;;;-144.24;100.00;114865.94;5077474;22;45755;-73
2024/02/05 04:23:53;;;;;;;;;1.00;1.00;;;;;-144.24;100.00;114865.94;5072921;28;45621;-70
2024/02/05 04:26:18;;;;;;;;;1.67;1.67;;;;;-144.24;100.00;114865.94;5071532;22;45580;-74
2024/02/05 04:28:44;;;;;;;;;2.00;1.00;;;;;-144.24;100.00;114865.94;5076648;28;45465;-71
2024/02/05 04:31:10;;;;;;;;;1.67;1.67;;;;;-144.24;100.00;114865.94;5074127;28;45620;-71
2024/02/05 04:33:36;;;;;;;;;2.67;1.00;;;;;-144.24;100.00;114865.94;5076723;28;45452;-70
2024/02/05 04:36:01;;;;;;;;;2.67;2.00;;;;;-144.24;100.00;114865.94;5054341;28;45494;-70
2024/02/05 04:38:27;;;;;;;;;4.33;1.00;;;;;-144.24;100.00;114865.94;5086159;22;45572;-70
2024/02/05 04:40:52;;;;;;;;;3.33;2.00;;;;;-144.24;100.00;114865.94;5084816;22;48167;-71
2024/02/05 04:43:20;;;;;;;;;5.00;1.33;;;;;-144.24;100.00;114865.94;5069274;22;45366;-73
2024/02/05 04:45:46;;;;;;;;;5.00;2.00;;;;;-144.24;100.00;114865.94;5084605;22;45368;-71
2024/02/05 04:48:14;;;;;;;;;0.67;0.00;;;;;-144.24;100.00;114865.94;5100129;22;46448;-70
2024/02/05 04:50:40;;;;;;;;;4.33;2.67;;;;;-144.24;100.00;114865.94;5104647;22;45617;-70
2024/02/05 04:53:05;;;;;;;;;1.00;1.00;;;;;-144.24;100.00;114865.94;5077998;22;61281;-74
2024/02/05 04:55:31;;;;;;;;;2.00;2.00;;;;;-144.24;100.00;114865.94;5069402;22;45355;-71
2024/02/05 04:57:56;;;;;;;;;4.00;2.67;;;;;-144.24;100.00;114865.94;5091657;22;45554;-70
2024/02/05 05:00:21;;;;;;;;;2.67;2.00;;;;;-144.24;100.00;114865.94;5076007;22;47048;-71
2024/02/05 05:02:47;;;;;;;;;3.00;1.00;;;;;-144.24;100.00;114865.94;5096223;22;45530;-74
2024/02/05 05:05:12;;;;;;;;;3.33;1.67;;;;;-144.24;100.00;114865.94;5091883;22;45518;-71
2024/02/05 05:07:37;;;;;;;;;1.67;1.67;;;;;-144.24;100.00;114865.94;5091917;22;52416;-72
2024/02/05 05:10:03;;;;;;;;;3.00;1.67;;;;;-144.24;100.00;114865.94;5069707;22;63285;-71
2024/02/05 05:12:32;;;;;;;;;3.00;3.00;;;;;-144.24;100.00;114865.94;5067561;22;45367;-71
2024/02/05 05:14:57;;;;;;;;;4.33;4.00;;;;;-144.24;100.00;114865.94;5073244;22;49693;-71
2024/02/05 05:17:23;;;;;;;;;3.00;1.67;;;;;-144.24;100.00;114865.94;5033484;28;45362;-71
2024/02/05 05:19:48;;;;;;;;;4.33;3.00;;;;;-144.24;100.00;114865.94;5034675;28;46381;-70
2024/02/05 05:22:13;;;;;;;;;4.67;2.00;;;;;-144.24;100.00;114865.94;5058202;28;45361;-72
2024/02/05 05:24:39;;;;;;;;;8.33;2.00;;;;;-144.24;100.00;114865.94;5054976;28;48630;-70
2024/02/05 05:27:05;;;;;;;;;2.67;2.00;;;;;-144.24;100.00;114865.94;5058641;28;51460;-70
2024/02/05 05:29:30;;;;;;;;;4.67;3.00;;;;;-144.24;100.00;114865.94;5062568;28;45880;-71
2024/02/05 05:31:56;;;;;;;;;5.00;3.00;;;;;-144.24;100.00;114865.94;5053644;28;51730;-73
2024/02/05 05:34:21;;;;;;;;;4.00;3.00;;;;;-144.24;100.00;114865.94;5044911;28;45445;-71
2024/02/05 05:36:46;;;;;;;;;4.67;1.67;;;;;-144.24;100.00;114865.94;5060385;28;48608;-73
2024/02/05 05:39:12;;;;;;;;;4.00;3.00;;;;;-144.24;100.00;114865.94;5062752;28;57961;-72
2024/02/05 05:41:37;;;;;;;;;7.00;3.00;;;;;-144.24;100.00;114865.94;5061116;28;45484;-69
2024/02/05 05:44:03;;;;;;;;;9.00;3.00;;;;;-144.24;100.00;114865.94;5060789;28;45745;-70
2024/02/05 05:46:28;;;;;;;;;3.33;2.67;;;;;-144.24;100.00;114865.94;5062023;28;45465;-73
2024/02/05 05:48:54;;;;;;;;;3.33;1.00;;;;;-144.24;100.00;114865.94;5062924;28;46556;-74
2024/02/05 05:51:19;;;;;;;;;4.00;2.67;;;;;-144.24;100.00;114865.94;5061751;28;45395;-70
2024/02/05 05:53:45;;;;;;;;;5.67;2.00;;;;;-144.24;100.00;114865.94;5028322;28;45289;-73
2024/02/05 05:56:10;;;;;;;;;2.00;2.00;;;;;-144.24;100.00;114865.94;5062475;28;45621;-74
2024/02/05 05:58:36;;;;;;;;;2.00;2.00;;;;;-144.24;100.00;114865.94;5044626;28;46870;-73
2024/02/05 06:01:05;;;;;;;;;9.00;3.00;;;;;-144.24;100.00;114865.94;5043921;28;45404;-71
2024/02/05 06:03:33;;;;;;;;;4.00;3.00;;;;;-144.24;100.00;114865.94;5062687;28;45295;-73
2024/02/05 06:05:59;;;;;;;;;5.33;3.33;;;;;-144.24;100.00;114865.94;5044421;28;45566;-71
2024/02/05 06:08:24;;;;;;;;;4.67;2.67;;;;;-144.24;100.00;114865.94;5044030;28;45566;-71
2024/02/05 06:10:50;;;;;;;;;6.00;2.33;;;;;-144.24;100.00;114865.94;5061619;28;45304;-70
2024/02/05 06:13:15;;;;;;;;;3.33;2.00;;;;;-144.24;100.00;114865.94;5044103;28;45436;-72
2024/02/05 06:15:40;;;;;;;;;6.33;2.00;;;;;-144.24;100.00;114865.94;5053605;28;45493;-71
2024/02/05 06:18:06;;;;;;;;;9.67;3.00;;;;;-144.24;100.00;114865.94;5058809;28;45727;-73
2024/02/05 06:20:32;;;;;;;;;7.00;2.33;;;;;-144.24;100.00;114865.94;5052711;28;45358;-71
2024/02/05 06:22:57;;;;;;;;;0.00;0.00;;;;;-144.24;100.00;114865.94;5041362;28;45851;-74
2024/02/05 06:25:22;;;;;;;;;6.00;4.00;;;;;-144.24;100.00;114865.94;5060732;28;45555;-70
2024/02/05 06:27:48;;;;;;;;;6.00;3.33;;;;;-144.24;100.00;114865.94;5062210;28;45579;-71
2024/02/05 06:30:13;;;;;;;;;7.33;3.33;;;;;-144.24;100.00;114865.94;5061916;28;45476;-70
2024/02/05 06:32:39;;;;;;;;;4.33;3.00;;;;;-144.24;100.00;114865.94;5020063;28;45541;-73
2024/02/05 06:35:05;;;;;;;;;4.33;1.00;;;;;-144.24;100.00;114865.94;5165412;22;54401;-70
2024/02/05 06:37:30;;;;;;;;;9.33;3.00;;;;;-144.24;100.00;114865.94;5024167;28;47099;-70
2024/02/05 06:39:55;;;;;;;;;4.33;3.00;;;;;-144.24;100.00;114865.94;5058576;28;45372;-70
2024/02/05 06:42:22;;;;;;;;;4.67;3.00;;;;;-144.24;100.00;114865.94;5056035;28;61140;-70
2024/02/05 06:44:48;;;;;;;;;3.33;3.00;;;;;-144.24;100.00;114865.94;5041468;28;45282;-73
2024/02/05 06:47:14;;;;;;;;;12.00;2.67;;;;;-144.24;100.00;114865.94;5040147;28;47926;-70
2024/02/05 06:49:39;;;;;;;;;8.33;6.33;;;;;-144.24;100.00;114865.94;5055369;28;45516;-72
2024/02/05 06:52:05;;;;;;;;;4.00;3.00;;;;;-144.24;100.00;114865.94;5055049;28;55701;-70
2024/02/05 06:54:32;;;;;;;;;4.00;2.00;;;;;-144.24;100.00;114865.94;5051057;28;46007;-70
2024/02/05 06:56:58;;;;;;;;;7.33;3.00;;;;;-144.24;100.00;114865.94;5058308;28;46578;-73
2024/02/05 06:59:23;;;;;;;;;6.33;4.33;;;;;-144.24;100.00;114865.94;5058248;28;45531;-70
2024/02/05 07:01:49;;;;;;;;;4.00;3.00;;;;;-144.24;100.00;114865.94;5056713;28;46593;-71
2024/02/05 07:04:14;;;;;;;;;5.33;3.67;;;;;-144.24;100.00;114865.94;5058408;28;45432;-71
2024/02/05 07:06:39;;;;;;;;;4.33;4.00;;;;;-144.24;100.00;114865.94;5039410;28;56082;-70
2024/02/05 07:09:05;;;;;;;;;8.00;3.33;;;;;-144.24;100.00;114865.94;5057062;28;61754;-70
2024/02/05 07:11:31;;;;;;;;;8.00;5.00;;;;;-144.24;100.00;114865.94;5036481;28;45300;-69
2024/02/05 07:13:56;;;;;;;;;4.33;4.00;;;;;-144.24;100.00;114865.94;5056662;28;60286;-70
2024/02/05 07:16:21;;;;;;;;;3.00;3.00;;;;;-144.24;100.00;114865.94;5039600;28;56046;-69
2024/02/05 07:18:47;;;;;;;;;4.00;2.00;;;;;-144.24;100.00;114865.94;5057319;28;45511;-71
2024/02/05 07:21:12;;;;;;;;;7.67;5.00;;;;;-144.24;100.00;114865.94;5058092;28;49481;-70
2024/02/05 07:23:37;;;;;;;;;5.00;3.33;;;;;-144.24;100.00;114865.94;5046710;28;45829;-70
2024/02/05 07:26:03;;;;;;;;;5.67;4.33;;;;;-144.24;100.00;114865.94;5037324;28;45695;-69
2024/02/05 07:28:30;;;;;;;;;4.67;4.67;;;;;-144.24;100.00;114865.94;5050664;28;45502;-71
2024/02/05 07:30:55;;;;;;;;;9.00;4.33;;;;;-144.24;100.00;114865.94;5050854;28;45348;-71
2024/02/05 07:33:21;;;;;;;;;7.33;4.00;;;;;-144.24;100.00;114865.94;5024397;28;45401;-72
2024/02/05 07:35:46;;;;;;;;;6.00;2.67;;;;;-144.24;100.00;114865.94;5028806;28;45859;-70
2024/02/05 07:38:11;;;;;;;;;8.67;3.67;;;;;-144.24;100.00;114865.94;5030083;28;45526;-73
2024/02/05 07:40:37;;;;;;;;;3.00;3.00;;;;;-144.24;100.00;114865.94;5023951;28;45486;-70
2024/02/05 07:43:02;;;;;;;;;8.00;5.00;;;;;-144.24;100.00;114865.94;5049393;28;45387;-69
2024/02/05 07:45:30;;;;;;;;;6.67;3.33;;;;;-144.24;100.00;114865.94;5030988;28;45600;-70
2024/02/05 07:47:55;;;;;;;;;9.67;4.00;;;;;-144.24;100.00;114865.94;5052977;28;45571;-70
2024/02/05 07:50:21;;;;;;;;;8.67;3.67;;;;;-144.24;100.00;114865.94;5043500;28;45433;-71
2024/02/05 07:52:46;;;;;;;;;4.33;3.67;;;;;-144.24;100.00;114865.94;5025660;28;45379;-71
2024/02/05 07:55:12;;;;;;;;;5.00;4.00;;;;;-144.24;100.00;114865.94;5023965;28;55514;-71
2024/02/05 07:57:38;;;;;;;;;5.33;4.00;;;;;-144.24;100.00;114865.94;5045585;28;45570;-71
2024/02/05 08:00:04;;;;;;;;;7.00;5.00;;;;;-144.24;100.00;114865.94;5014260;28;45478;-71
2024/02/05 08:02:29;;;;;;;;;8.33;5.67;;;;;-144.24;100.00;114865.94;5044659;28;45390;-71
2024/02/05 08:04:54;;;;;;;;;3.33;3.33;;;;;-144.24;100.00;114865.94;5038129;28;46613;-70
2024/02/05 08:07:20;;;;;;;;;6.67;4.00;;;;;-144.24;100.00;114865.94;5042805;28;45502;-71
2024/02/05 08:09:45;;;;;;;;;9.00;5.00;;;;;-144.24;100.00;114865.94;5047347;28;45895;-72
2024/02/05 08:12:12;;;;;;;;;9.33;8.33;;;;;-144.24;100.00;114865.94;5053148;28;45567;-70
2024/02/05 08:14:37;;;;;;;;;8.67;7.33;;;;;-144.24;100.00;114865.94;5051720;28;45483;-72
2024/02/05 08:17:03;;;;;;;;;8.67;6.33;;;;;-144.24;100.00;114865.94;5028625;28;45866;-71
2024/02/05 08:19:28;;;;;;;;;7.00;5.00;;;;;-144.24;100.00;114865.94;5046615;28;45491;-72
2024/02/05 08:21:54;;;;;;;;;3.33;2.00;;;;;-144.24;100.00;114865.94;5052307;28;45451;-70
2024/02/05 08:24:19;;;;;;;;;11.00;6.00;;;;;-144.24;100.00;114865.94;5049208;28;67427;-70
2024/02/05 08:26:45;;;;;;;;;10.00;6.33;;;;;-144.24;100.00;114865.94;5054423;28;46204;-71
2024/02/05 08:29:10;;;;;;;;;6.00;5.00;;;;;-144.24;100.00;114865.94;5051762;28;45520;-71
2024/02/05 08:31:36;;;;;;;;;8.33;6.00;;;;;-144.24;100.00;114865.94;5037444;28;45478;-70
2024/02/05 08:34:02;;;;;;;;;6.33;4.00;;;;;-144.24;100.00;114865.94;5049280;28;46419;-71
2024/02/05 08:36:28;;;;;;;;;5.67;5.00;;;;;-144.24;100.00;114865.94;5027698;28;45963;-73
2024/02/05 08:38:54;;;;;;;;;9.67;4.67;;;;;-144.24;100.00;114865.94;5029492;28;45475;-70
2024/02/05 08:41:19;;;;;;;;;7.67;5.67;;;;;-144.24;100.00;114865.94;5004258;28;45502;-71
2024/02/05 08:43:44;;;;;;;;;3.33;2.33;;;;;-144.24;100.00;114865.94;5032957;28;46400;-71
2024/02/05 08:46:10;;;;;;;;;5.00;5.00;;;;;-144.24;100.00;114865.94;5029101;28;45289;-74
2024/02/05 08:48:38;;;;;;;;;15.00;8.00;;;;;-144.24;100.00;114865.94;5034984;28;45474;-71
2024/02/05 08:51:03;;;;;;;;;9.33;5.67;;;;;-144.24;100.00;114865.94;5014223;28;45494;-72
2024/02/05 08:53:29;;;;;;;;;11.00;6.67;;;;;-144.24;100.00;114865.94;5029731;28;46173;-71
2024/02/05 08:55:54;;;;;;;;;8.67;5.00;;;;;-144.24;100.00;114865.94;5013639;28;45443;-70
2024/02/05 08:58:19;;;;;;;;;9.67;6.33;;;;;-144.24;100.00;114865.94;5039211;28;45305;-72
2024/02/05 09:00:46;;;;;;;;;4.33;4.33;;;;;-144.24;100.00;114865.94;5038659;28;63888;-70
2024/02/05 09:03:12;;;;;;;;;10.00;5.00;;;;;-144.24;100.00;114865.94;5037877;28;45693;-71
2024/02/05 09:05:37;;;;;;;;;12.00;6.00;;;;;-144.24;100.00;114865.94;5033248;28;45452;-70
2024/02/05 09:08:03;;;;;;;;;8.33;5.00;;;;;-144.24;100.00;114865.94;5039262;28;51308;-69
2024/02/05 09:10:28;;;;;;;;;9.00;4.67;;;;;-144.24;100.00;114865.94;5032836;28;45368;-70
2024/02/05 09:12:53;;;;;;;;;8.67;4.67;;;;;-144.24;100.00;114865.94;5032961;28;57672;-69
2024/02/05 09:15:19;;;;;;;;;8.33;4.33;;;;;-144.24;100.00;114865.94;5027944;28;54630;-73
2024/02/05 09:17:44;;;;;;;;;6.00;6.00;;;;;-144.24;100.00;114865.94;5032464;28;45511;-71
2024/02/05 09:20:10;;;;;;;;;11.00;5.00;;;;;-144.24;100.00;114865.94;5034934;28;45571;-74
2024/02/05 09:22:35;;;;;;;;;3.33;3.33;;;;;-144.24;100.00;114865.94;5026441;28;45743;-71
2024/02/05 09:25:01;;;;;;;;;4.33;4.33;;;;;-144.24;100.00;114865.94;5028776;28;45379;-72
2024/02/05 09:27:27;;;;;;;;;9.33;5.00;;;;;-144.24;100.00;114865.94;5005706;28;45499;-71
2024/02/05 09:29:53;;;;;;;;;11.00;8.00;;;;;-144.24;100.00;114865.94;5036976;28;45466;-73
2024/02/05 09:32:19;;;;;;;;;11.33;5.00;;;;;-144.24;100.00;114865.94;5030384;28;46229;-71
2024/02/05 09:34:44;;;;;;;;;12.00;5.00;;;;;-144.24;100.00;114865.94;5035102;28;46502;-74
2024/02/05 09:37:11;;;;;;;;;5.00;4.67;;;;;-144.24;100.00;114865.94;5033910;28;45483;-72
2024/02/05 09:39:36;;;;;;;;;7.33;5.00;;;;;-144.24;100.00;114865.94;5050557;28;45522;-73
2024/02/05 09:42:02;;;;;;;;;8.33;6.33;;;;;-144.24;100.00;114865.94;5018608;28;48100;-72
2024/02/05 09:44:28;;;;;;;;;8.33;4.00;;;;;-144.24;100.00;114865.94;5033443;28;46489;-73
2024/02/05 09:46:55;;;;;;;;;8.67;5.67;;;;;-144.24;100.00;114865.94;5055448;28;45530;-73
2024/02/05 09:49:21;;;;;;;;;5.67;5.67;;;;;-144.24;100.00;114865.94;5032725;28;45621;-74
2024/02/05 09:51:47;;;;;;;;;9.00;7.67;;;;;-144.24;100.00;114865.94;5054020;28;47723;-71
2024/02/05 09:54:16;;;;;;;;;4.00;3.00;;;;;-144.24;100.00;114865.94;5056390;28;45482;-71
2024/02/05 09:56:42;;;;;;;;;10.33;5.67;;;;;-144.24;100.00;114865.94;5051797;28;45478;-71
2024/02/05 09:59:09;;;;;;;;;5.33;5.33;;;;;-144.24;100.00;114865.94;5052416;28;45347;-71
2024/02/05 10:01:35;;;;;;;;;12.33;7.67;;;;;-144.24;100.00;114865.94;5016325;28;48310;-72
2024/02/05 10:04:01;;;;;;;;;8.67;4.00;;;;;-144.24;100.00;114865.94;5038143;28;45339;-74
2024/02/05 10:06:33;;;;;;;;;9.33;5.00;;;;;-144.24;100.00;114865.94;5035133;28;45522;-71
2024/02/05 10:09:01;;;;;;;;;5.33;5.00;;;;;-144.24;100.00;114865.94;5033892;28;45320;-70
2024/02/05 10:11:27;;;;;;;;;8.67;5.00;;;;;-144.24;100.00;114865.94;5050877;28;46694;-73
2024/02/05 10:13:55;;;;;;;;;9.00;5.00;;;;;-144.24;100.00;114865.94;5057026;28;45825;-72
2024/02/05 10:16:21;;;;;;;;;6.67;5.33;;;;;-144.24;100.00;114865.94;5053201;28;45513;-74
2024/02/05 10:18:46;;;;;;;;;10.00;7.00;;;;;-144.24;100.00;114865.94;5062988;28;45485;-72
2024/02/05 10:21:11;;;;;;;;;11.00;6.67;;;;;-144.24;100.00;114865.94;5057587;28;63996;-71
2024/02/05 10:23:37;;;;;;;;;8.33;5.67;;;;;-144.24;100.00;114865.94;5035281;28;62393;-73
2024/02/05 10:26:03;;;;;;;;;10.00;8.33;;;;;-144.24;100.00;114865.94;5048323;28;45518;-71
2024/02/05 10:28:29;;;;;;;;;16.00;8.00;;;;;-144.24;100.00;114865.94;5050623;28;45473;-71
2024/02/05 10:31:07;;;;;;;;;13.00;10.67;;;;;-144.24;100.00;114865.94;5054497;28;46430;-72
2024/02/05 10:33:33;;;;;;;;;16.00;8.00;;;;;-144.24;100.00;114865.94;5036823;28;45559;-71
2024/02/05 10:35:58;;;;;;;;;18.00;10.33;;;;;-144.24;100.00;114865.94;5031077;28;45467;-71
2024/02/05 10:38:27;;;;;;;;;14.67;10.00;;;;;-144.24;100.00;114865.94;5041045;28;45376;-74
2024/02/05 10:40:52;;;;;;;;;14.67;8.00;;;;;-144.24;100.00;114865.94;5030961;28;46048;-71
2024/02/05 10:43:18;;;;;;;;;17.67;12.00;;;;;-144.24;100.00;114865.94;5017575;28;46563;-72
2024/02/05 10:45:43;;;;;;;;;19.33;11.67;;;;;-144.24;100.00;114865.94;5041374;28;45459;-72
2024/02/05 10:48:09;;;;;;;;;12.00;10.67;;;;;-144.24;100.00;114865.94;5022873;28;56476;-72
2024/02/05 10:50:34;;;;;;;;;16.00;10.00;;;;;-144.24;100.00;114865.94;5017960;28;56784;-73
2024/02/05 10:53:00;;;;;;;;;16.00;10.33;;;;;-144.24;100.00;114865.94;5042013;28;45481;-72
2024/02/05 10:55:25;;;;;;;;;18.33;9.33;;;;;-144.24;100.00;114865.94;5036231;28;45405;-74
2024/02/05 10:57:52;;;;;;;;;11.00;11.00;;;;;-144.24;100.00;114865.94;5042098;28;45454;-70
2024/02/05 11:00:18;;;;;;;;;13.67;10.00;;;;;-144.24;100.00;114865.94;5021625;28;45475;-73
2024/02/05 11:02:50;;;;;;;;;9.67;9.67;;;;;-144.24;100.00;114865.94;5041955;28;45504;-71